Prices Branch, Missouri
Current Conditions -  °F | °C
As of 12:15 AM on Wednesday 22 Oct 2014 (Local Time) from KFYG Reporting Station
Clear Clear  
Wind Chill: 12°   Ceiling: Unl
Heat Index: 12°   Visibility: 10mi
Dew Point:   Wind: 3mph
Humidity: 58%   Direction: 130°SE
Pressure: 30.19"   Gusts: NA
Location:  38.8882°N, 91.5312°W
Report Text: KFYG 220515Z AUTO 13003KT 10SM CLR 12/04 A3019 RMK AO2
Loading
Personal Weather Stations






























Interactive Weather Map
Tropical Storm Tracking
New forecast layout! Learn more

10-Day Weather Forecast

Advertisements
Track Severe Weather on mobile